Home > Products > Valid Products > TAF

000
FTUS41 KAKQ 311136
TAFORF
TAF
KORF 311136Z 3112/0112 22004KT P6SM BKN070 OVC100
     FM311400 22008KT P6SM VCSH BKN070 OVC100
     FM311800 22009KT P6SM SCT070 OVC120
     FM010000 20005KT P6SM SCT025 SCT100=



000
FTUS41 KAKQ 311136
TAFECG
TAF
KECG 311136Z 3112/0112 22004KT P6SM VCSH BKN070 OVC100
     FM311400 20008KT 6SM -RA BR BKN040 OVC080
     FM311800 19008KT P6SM BKN040 OVC080
     FM312200 20006KT P6SM BKN040 OVC100=



000
FTUS41 KAKQ 311136
TAFPHF
TAF
KPHF 311136Z 3112/0112 22009KT P6SM SCT080 OVC100
     FM312300 20005KT P6SM SCT025 SCT100=



000
FTUS41 KAKQ 311136
TAFPHF
TAF
KPHF 311136Z 3112/0112 22009KT P6SM SCT080 OVC100
     FM312300 20005KT P6SM SCT025 SCT100=



000
FTUS41 KAKQ 311136
TAFECG
TAF
KECG 311136Z 3112/0112 22004KT P6SM VCSH BKN070 OVC100
     FM311400 20008KT 6SM -RA BR BKN040 OVC080
     FM311800 19008KT P6SM BKN040 OVC080
     FM312200 20006KT P6SM BKN040 OVC100=



000
FTUS41 KAKQ 311136
TAFORF
TAF
KORF 311136Z 3112/0112 22004KT P6SM BKN070 OVC100
     FM311400 22008KT P6SM VCSH BKN070 OVC100
     FM311800 22009KT P6SM SCT070 OVC120
     FM010000 20005KT P6SM SCT025 SCT100=



000
FTUS41 KAKQ 311136
TAFRIC
TAF
KRIC 311136Z 3112/0112 21004KT P6SM BKN080 OVC100
     FM311400 20009KT P6SM SCT080 OVC100
     FM312300 18005KT P6SM SCT100=



000
FTUS41 KAKQ 311136
TAFSBY
TAF
KSBY 311136Z 3112/0112 24006KT P6SM OVC100
     FM311400 24009KT P6SM BKN060 OVC100
     FM312300 23005KT P6SM SCT100=



000
FTUS41 KAKQ 311136
TAFSBY
TAF
KSBY 311136Z 3112/0112 24006KT P6SM OVC100
     FM311400 24009KT P6SM BKN060 OVC100
     FM312300 23005KT P6SM SCT100=



000
FTUS41 KAKQ 311136
TAFRIC
TAF
KRIC 311136Z 3112/0112 21004KT P6SM BKN080 OVC100
     FM311400 20009KT P6SM SCT080 OVC100
     FM312300 18005KT P6SM SCT100=



000
FTUS41 KAKQ 311005 AAA
TAFSBY
TAF AMD
KSBY 311005Z 3110/0106 20003KT P6SM VCSH OVC100
     FM311200 24006KT P6SM OVC100
     FM311400 24009KT P6SM BKN060 OVC100
     FM312300 23005KT P6SM SCT100=



000
FTUS41 KAKQ 311005 AAA
TAFECG
TAF AMD
KECG 311005Z 3110/0106 22004KT P6SM VCSH BKN080 OVC100
     FM311400 20008KT 6SM -RA BR BKN040 OVC080
     FM311800 19008KT P6SM BKN040 OVC080
     FM312200 20006KT P6SM BKN040 OVC100=



000
FTUS41 KAKQ 310538
TAFORF
TAF
KORF 310538Z 3106/0106 22004KT P6SM OVC100
     FM311400 22008KT P6SM BKN060 OVC100
     FM010000 20005KT P6SM SCT100=



000
FTUS41 KAKQ 310538
TAFPHF
TAF
KPHF 310538Z 3106/0106 22004KT P6SM OVC100
     FM311200 22009KT P6SM SCT080 OVC100
     FM312300 20005KT P6SM SCT100=



000
FTUS41 KAKQ 310538
TAFSBY
TAF
KSBY 310538Z 3106/0106 20003KT P6SM BKN100
     FM311400 24009KT P6SM BKN060 OVC100
     FM312300 23005KT P6SM SCT100=



000
FTUS41 KAKQ 310538
TAFRIC
TAF
KRIC 310538Z 3106/0106 20004KT P6SM SCT080 OVC100
     FM311400 20008KT P6SM SCT060 BKN100
     FM312300 18005KT P6SM SCT100=



000
FTUS41 KAKQ 310538
TAFECG
TAF
KECG 310538Z 3106/0106 22004KT P6SM SCT080 BKN100
     FM311400 20008KT 6SM -RA BR BKN040 OVC080
     FM311800 19008KT P6SM BKN040 OVC080
     FM312200 20006KT P6SM BKN040 OVC100=



000
FTUS41 KAKQ 310429 AAA
TAFSBY
TAF AMD
KSBY 310429Z 3104/3124 20004KT P6SM VCSH BKN120
     FM310500 20004KT P6SM BKN120
     FM311400 21009KT P6SM SCT060 OVC120=



000
FTUS41 KAKQ 310429 AAA
TAFSBY
TAF AMD
KSBY 310429Z 3104/3124 20004KT P6SM VCSH BKN120
     FM310500 20004KT P6SM BKN120
     FM311400 21009KT P6SM SCT060 OVC120=



000
FTUS41 KAKQ 302336
TAFRIC
TAF
KRIC 302336Z 3100/3124 17005KT P6SM OVC150
     FM310900 21004KT P6SM FEW060 OVC100
     FM311500 20008KT P6SM SCT050 BKN100=



000
FTUS41 KAKQ 302336
TAFECG
TAF
KECG 302336Z 3100/3124 14005KT P6SM BKN150
     FM310500 22004KT P6SM BKN080 OVC150
     FM311000 24003KT P6SM -RA BKN030 OVC080
     FM311500 22008KT P6SM -RA OVC025
     FM311900 20006KT P6SM BKN050 OVC100=



000
FTUS41 KAKQ 302336
TAFORF
TAF
KORF 302336Z 3100/3124 20006KT P6SM BKN200
     FM310500 22004KT P6SM OVC080
     FM311400 21007KT P6SM -RA OVC040
     FM311700 20009KT P6SM BKN050 OVC100=



000
FTUS41 KAKQ 302336
TAFSBY
TAF
KSBY 302336Z 3100/3124 20004KT P6SM BKN150 OVC250
     FM311400 21009KT P6SM SCT060 OVC120=



000
FTUS41 KAKQ 302336
TAFPHF
TAF
KPHF 302336Z 3100/3124 16005KT P6SM BKN200
     FM310800 21004KT P6SM OVC080
     FM311400 22007KT P6SM BKN080 OVC150=



000
FTUS41 KAKQ 301758
TAFSBY
TAF
KSBY 301758Z 3018/3118 20008KT P6SM BKN200
     FM310400 19004KT P6SM OVC120=



000
FTUS41 KAKQ 301758
TAFECG
TAF
KECG 301758Z 3018/3118 07006KT P6SM BKN250
     FM302000 12007KT P6SM BKN150
     FM310600 22004KT P6SM OVC050
      TEMPO 3108/3112 BKN030=



000
FTUS41 KAKQ 301758
TAFORF
TAF
KORF 301758Z 3018/3118 04005KT P6SM BKN200
     FM310200 20004KT P6SM OVC120
     FM310800 24007KT P6SM OVC050=



000
FTUS41 KAKQ 301758
TAFRIC
TAF
KRIC 301758Z 3018/3118 17005KT P6SM BKN200
     FM310300 21004KT P6SM FEW060 OVC100=



000
FTUS41 KAKQ 301758
TAFPHF
TAF
KPHF 301758Z 3018/3118 20007KT P6SM BKN200
     FM310200 20004KT P6SM OVC120
     FM311000 24007KT P6SM OVC050=



000
FTUS41 KAKQ 301758
TAFRIC
TAF
KRIC 301758Z 3018/3118 17005KT P6SM BKN200
     FM310300 21004KT P6SM FEW060 OVC100=



000
FTUS41 KAKQ 301758
TAFSBY
TAF
KSBY 301758Z 3018/3118 20008KT P6SM BKN200
     FM310400 19004KT P6SM OVC120=



000
FTUS41 KAKQ 301758
TAFECG
TAF
KECG 301758Z 3018/3118 07006KT P6SM BKN250
     FM302000 12007KT P6SM BKN150
     FM310600 22004KT P6SM OVC050
      TEMPO 3108/3112 BKN030=



000
FTUS41 KAKQ 301758
TAFORF
TAF
KORF 301758Z 3018/3118 04005KT P6SM BKN200
     FM310200 20004KT P6SM OVC120
     FM310800 24007KT P6SM OVC050=



000
FTUS41 KAKQ 301758
TAFPHF
TAF
KPHF 301758Z 3018/3118 20007KT P6SM BKN200
     FM310200 20004KT P6SM OVC120
     FM311000 24007KT P6SM OVC050=



000
FTUS41 KAKQ 301125
TAFSBY
TAF
KSBY 301125Z 3012/3112 21003KT P6SM BKN250
     FM301600 19009KT P6SM BKN150
     FM302300 18004KT P6SM OVC120=



000
FTUS41 KAKQ 301125
TAFPHF
TAF
KPHF 301125Z 3012/3112 VRB02KT P6SM BKN250
     FM301500 12008KT P6SM BKN150
     FM302300 20004KT P6SM OVC120=



000
FTUS41 KAKQ 301125
TAFECG
TAF
KECG 301125Z 3012/3112 33004KT P6SM BKN250
     FM301500 07006KT P6SM BKN250
     FM302000 12007KT P6SM BKN150
     FM302300 12005KT P6SM BKN120=



000
FTUS41 KAKQ 301125
TAFORF
TAF
KORF 301125Z 3012/3112 05005KT P6SM BKN250
     FM301800 09008KT P6SM BKN150
     FM302300 15004KT P6SM OVC120=



000
FTUS41 KAKQ 301125
TAFRIC
TAF
KRIC 301125Z 3012/3112 22003KT P6SM BKN250
     FM301600 17007KT P6SM BKN150
     FM302300 17004KT P6SM OVC120=



000
FTUS41 KAKQ 300526
TAFPHF
TAF
KPHF 300526Z 3006/3106 00000KT P6SM BKN250
     FM301200 22004KT P6SM SCT150 BKN250
     FM301800 15008KT P6SM BKN150
     FM302300 17005KT P6SM BKN120=



000
FTUS41 KAKQ 300526
TAFSBY
TAF
KSBY 300526Z 3006/3106 00000KT P6SM BKN250
     FM301300 21005KT P6SM BKN250
     FM301800 18009KT P6SM BKN250
     FM302300 18004KT P6SM BKN120=



000
FTUS41 KAKQ 300526
TAFECG
TAF
KECG 300526Z 3006/3106 VRB03KT P6SM BKN250
     FM301200 33004KT P6SM BKN250
     FM301500 06006KT P6SM SCT150 BKN250
     FM301800 12007KT P6SM SCT150 BKN250
     FM302300 12005KT P6SM BKN120=



000
FTUS41 KAKQ 300526
TAFORF
TAF
KORF 300526Z 3006/3106 00000KT P6SM BKN250
     FM301400 05005KT P6SM SCT150 BKN250
     FM301800 09008KT P6SM BKN150
     FM302300 15004KT P6SM BKN120=



000
FTUS41 KAKQ 300526
TAFRIC
TAF
KRIC 300526Z 3006/3106 VRB02KT P6SM BKN250
     FM301400 20005KT P6SM BKN150
     FM301800 17007KT P6SM SCT150 BKN250
     FM302300 17004KT P6SM BKN120=



000
FTUS41 KAKQ 300526
TAFSBY
TAF
KSBY 300526Z 3006/3106 00000KT P6SM BKN250
     FM301300 21005KT P6SM BKN250
     FM301800 18009KT P6SM BKN250
     FM302300 18004KT P6SM BKN120=



000
FTUS41 KAKQ 300526
TAFECG
TAF
KECG 300526Z 3006/3106 VRB03KT P6SM BKN250
     FM301200 33004KT P6SM BKN250
     FM301500 06006KT P6SM SCT150 BKN250
     FM301800 12007KT P6SM SCT150 BKN250
     FM302300 12005KT P6SM BKN120=



000
FTUS41 KAKQ 300526
TAFPHF
TAF
KPHF 300526Z 3006/3106 00000KT P6SM BKN250
     FM301200 22004KT P6SM SCT150 BKN250
     FM301800 15008KT P6SM BKN150
     FM302300 17005KT P6SM BKN120=



000
FTUS41 KAKQ 300526
TAFORF
TAF
KORF 300526Z 3006/3106 00000KT P6SM BKN250
     FM301400 05005KT P6SM SCT150 BKN250
     FM301800 09008KT P6SM BKN150
     FM302300 15004KT P6SM BKN120=



000
FTUS41 KAKQ 300526
TAFRIC
TAF
KRIC 300526Z 3006/3106 VRB02KT P6SM BKN250
     FM301400 20005KT P6SM BKN150
     FM301800 17007KT P6SM SCT150 BKN250
     FM302300 17004KT P6SM BKN120=



000
FTUS41 KAKQ 292337
TAFRIC
TAF
KRIC 292337Z 3000/3024 17004KT P6SM BKN250
     FM301500 21005KT P6SM OVC150=



000
FTUS41 KAKQ 292337
TAFSBY
TAF
KSBY 292337Z 3000/3024 VRB03KT P6SM BKN250
     FM300200 00000KT P6SM BKN250
     FM301300 21005KT P6SM BKN150
     FM301700 20008KT P6SM OVC150=



000
FTUS41 KAKQ 292337
TAFRIC
TAF
KRIC 292337Z 3000/3024 17004KT P6SM BKN250
     FM301500 21005KT P6SM OVC150=



000
FTUS41 KAKQ 292337
TAFSBY
TAF
KSBY 292337Z 3000/3024 VRB03KT P6SM BKN250
     FM300200 00000KT P6SM BKN250
     FM301300 21005KT P6SM BKN150
     FM301700 20008KT P6SM OVC150=



000
FTUS41 KAKQ 292337
TAFPHF
TAF
KPHF 292337Z 3000/3024 12004KT P6SM BKN250
     FM300500 00000KT P6SM BKN250
     FM301300 22005KT P6SM BKN150
     FM301800 18008KT P6SM BKN120=



000
FTUS41 KAKQ 292337
TAFORF
TAF
KORF 292337Z 3000/3024 12005KT P6SM BKN250
     FM300400 17003KT P6SM BKN250
     FM301400 04005KT P6SM BKN150
     FM301700 07008KT P6SM OVC150
     FM302200 16006KT P6SM OVC120=



000
FTUS41 KAKQ 292337
TAFECG
TAF
KECG 292337Z 3000/3024 05004KT P6SM BKN070 OVC150
     FM300500 VRB03KT P6SM BKN150
     FM301700 15006KT P6SM BKN100=



000
FTUS41 KAKQ 292337
TAFORF
TAF
KORF 292337Z 3000/3024 12005KT P6SM BKN250
     FM300400 17003KT P6SM BKN250
     FM301400 04005KT P6SM BKN150
     FM301700 07008KT P6SM OVC150
     FM302200 16006KT P6SM OVC120=



000
FTUS41 KAKQ 292337
TAFECG
TAF
KECG 292337Z 3000/3024 05004KT P6SM BKN070 OVC150
     FM300500 VRB03KT P6SM BKN150
     FM301700 15006KT P6SM BKN100=



000
FTUS41 KAKQ 292337
TAFPHF
TAF
KPHF 292337Z 3000/3024 12004KT P6SM BKN250
     FM300500 00000KT P6SM BKN250
     FM301300 22005KT P6SM BKN150
     FM301800 18008KT P6SM BKN120=



000
FTUS41 KAKQ 291720
TAFRIC
TAF
KRIC 291720Z 2918/3018 19007KT P6SM FEW050 BKN250
     FM292300 15003KT P6SM BKN250
     FM301300 22008KT P6SM BKN250=



000
FTUS41 KAKQ 291720
TAFORF
TAF
KORF 291720Z 2918/3018 07008KT P6SM FEW050
     FM292300 VRB03KT P6SM BKN250
     FM301300 22007KT P6SM BKN250=



000
FTUS41 KAKQ 291720
TAFSBY
TAF
KSBY 291720Z 2918/3018 16007KT P6SM SCT050
     FM292300 VRB02KT P6SM BKN250
     FM301300 22010KT P6SM BKN250=



000
FTUS41 KAKQ 291720
TAFPHF
TAF
KPHF 291720Z 2918/3018 10008KT P6SM FEW050
     FM292300 VRB03KT P6SM BKN250
     FM301300 22006KT P6SM BKN250=



000
FTUS41 KAKQ 291720
TAFECG
TAF
KECG 291720Z 2918/3018 05011KT P6SM FEW050
     FM300000 05004KT P6SM BKN250
     FM301300 23005KT P6SM BKN250=



000
FTUS41 KAKQ 291120
TAFORF
TAF
KORF 291120Z 2912/3012 VRB03KT P6SM SKC
     FM291400 07008KT P6SM FEW050
     FM292300 VRB03KT P6SM BKN250=



000
FTUS41 KAKQ 291120
TAFPHF
TAF
KPHF 291120Z 2912/3012 07004KT P6SM SCT060
     FM291500 09008KT P6SM FEW050
     FM292300 VRB03KT P6SM BKN250=



000
FTUS41 KAKQ 291120
TAFRIC
TAF
KRIC 291120Z 2912/3012 15004KT P6SM SCT060
     FM291600 15007KT P6SM SCT060
     FM292300 15003KT P6SM BKN250=



000
FTUS41 KAKQ 291120
TAFORF
TAF
KORF 291120Z 2912/3012 VRB03KT P6SM SKC
     FM291400 07008KT P6SM FEW050
     FM292300 VRB03KT P6SM BKN250=



000
FTUS41 KAKQ 291120
TAFPHF
TAF
KPHF 291120Z 2912/3012 07004KT P6SM SCT060
     FM291500 09008KT P6SM FEW050
     FM292300 VRB03KT P6SM BKN250=



000
FTUS41 KAKQ 291120
TAFSBY
TAF
KSBY 291120Z 2912/3012 VRB02KT P6SM SCT050
     FM291500 16007KT P6SM SCT050
     FM292300 VRB02KT P6SM BKN250=



000
FTUS41 KAKQ 291120
TAFECG
TAF
KECG 291120Z 2912/3012 05008KT P6SM SKC
     FM291500 06010KT P6SM FEW050
     FM300000 05004KT P6SM BKN250=



000
FTUS41 KAKQ 291120
TAFSBY
TAF
KSBY 291120Z 2912/3012 VRB02KT P6SM SCT050
     FM291500 16007KT P6SM SCT050
     FM292300 VRB02KT P6SM BKN250=



000
FTUS41 KAKQ 291120
TAFRIC
TAF
KRIC 291120Z 2912/3012 15004KT P6SM SCT060
     FM291600 15007KT P6SM SCT060
     FM292300 15003KT P6SM BKN250=



000
FTUS41 KAKQ 291120
TAFECG
TAF
KECG 291120Z 2912/3012 05008KT P6SM SKC
     FM291500 06010KT P6SM FEW050
     FM300000 05004KT P6SM BKN250=



000
FTUS41 KAKQ 290535
TAFECG
TAF
KECG 290535Z 2906/3006 04004KT P6SM SKC
     FM291200 05008KT P6SM SCT050
     FM300000 05004KT P6SM BKN250=



000
FTUS41 KAKQ 290535
TAFRIC
TAF
KRIC 290535Z 2906/3006 00000KT P6SM SKC
     FM291200 17005KT P6SM SCT050
     FM292300 15003KT P6SM BKN250=



000
FTUS41 KAKQ 290535
TAFORF
TAF
KORF 290535Z 2906/3006 VRB03KT P6SM SKC
     FM291200 06008KT P6SM SCT050
     FM292300 VRB03KT P6SM BKN250=



000
FTUS41 KAKQ 290535
TAFSBY
TAF
KSBY 290535Z 2906/3006 00000KT P6SM SKC
     FM291400 17007KT P6SM SCT050
     FM292300 VRB02KT P6SM BKN250=



000
FTUS41 KAKQ 290535
TAFPHF
TAF
KPHF 290535Z 2906/3006 00000KT P6SM SKC
     FM291200 09008KT P6SM SCT050
     FM292300 VRB03KT P6SM BKN250=



000
FTUS41 KAKQ 282339
TAFSBY
TAF
KSBY 282339Z 2900/2924 12005KT P6SM SKC
     FM290200 00000KT P6SM SKC
     FM291400 19004KT P6SM SCT050
     FM291900 15008KT P6SM FEW050=



000
FTUS41 KAKQ 282339
TAFPHF
TAF
KPHF 282339Z 2900/2924 09006KT P6SM SCT250
     FM290300 00000KT P6SM SKC
     FM291200 VRB03KT P6SM SKC
     FM291700 12007KT P6SM FEW050=



000
FTUS41 KAKQ 282339
TAFECG
TAF
KECG 282339Z 2900/2924 05008KT P6SM SKC
     FM290300 04004KT P6SM SKC
     FM291400 03007KT P6SM FEW060
     FM291900 07010KT P6SM SCT060=



000
FTUS41 KAKQ 282339
TAFRIC
TAF
KRIC 282339Z 2900/2924 VRB03KT P6SM SKC
     FM291500 18005KT P6SM SCT050=



000
FTUS41 KAKQ 282339
TAFORF
TAF
KORF 282339Z 2900/2924 08006KT P6SM SKC
     FM290200 VRB03KT P6SM SKC
     FM291300 06007KT P6SM FEW050=



000
FTUS41 KAKQ 282003 AAA
TAFPHF
TAF AMD
KPHF 282003Z 2820/2918 09007KT P6SM FEW045
     FM290000 VRB03KT P6SM SCT250
     FM291300 17005KT P6SM FEW120=



000
FTUS41 KAKQ 281720
TAFECG
TAF
KECG 281720Z 2818/2918 02013KT P6SM SCT040 BKN250
     FM282300 05008KT P6SM SCT100 BKN250
     FM290800 04004KT P6SM SCT030 BKN080
     FM291300 03007KT P6SM SCT040 BKN100=



000
FTUS41 KAKQ 281720
TAFSBY
TAF
KSBY 281720Z 2818/2918 05004KT P6SM SCT250
     FM282200 12005KT P6SM SKC
     FM290800 00000KT 3SM BR SKC
     FM291300 19004KT P6SM FEW040 SCT250=



000
FTUS41 KAKQ 281720
TAFRIC
TAF
KRIC 281720Z 2818/2918 05004KT P6SM SCT050 SCT250
     FM282300 08004KT P6SM SKC
     FM291200 19006KT P6SM SCT040 BKN250=



000
FTUS41 KAKQ 281720
TAFPHF
TAF
KPHF 281720Z 2818/2918 03005KT P6SM FEW045
     FM282300 08005KT P6SM SCT250
     FM291300 17005KT P6SM FEW120=



000
FTUS41 KAKQ 281720
TAFECG
TAF
KECG 281720Z 2818/2918 02013KT P6SM SCT040 BKN250
     FM282300 05008KT P6SM SCT100 BKN250
     FM290800 04004KT P6SM SCT030 BKN080
     FM291300 03007KT P6SM SCT040 BKN100=



000
FTUS41 KAKQ 281720
TAFSBY
TAF
KSBY 281720Z 2818/2918 05004KT P6SM SCT250
     FM282200 12005KT P6SM SKC
     FM290800 00000KT 3SM BR SKC
     FM291300 19004KT P6SM FEW040 SCT250=



000
FTUS41 KAKQ 281720
TAFRIC
TAF
KRIC 281720Z 2818/2918 05004KT P6SM SCT050 SCT250
     FM282300 08004KT P6SM SKC
     FM291200 19006KT P6SM SCT040 BKN250=



000
FTUS41 KAKQ 281720
TAFORF
TAF
KORF 281720Z 2818/2918 04009KT P6SM SCT045 SCT250
     FM282300 07006KT P6SM FEW120 SCT250
     FM290800 15003KT P6SM SCT120 BKN250
     FM291300 17003KT P6SM SCT020 BKN120=



000
FTUS41 KAKQ 281720
TAFORF
TAF
KORF 281720Z 2818/2918 04009KT P6SM SCT045 SCT250
     FM282300 07006KT P6SM FEW120 SCT250
     FM290800 15003KT P6SM SCT120 BKN250
     FM291300 17003KT P6SM SCT020 BKN120=



000
FTUS41 KAKQ 281720
TAFPHF
TAF
KPHF 281720Z 2818/2918 03005KT P6SM FEW045
     FM282300 08005KT P6SM SCT250
     FM291300 17005KT P6SM FEW120=



    US Dept of Commerce
    National Oceanic and Atmospheric Administration
    National Weather Service
    1325 East West Highway
    Silver Spring, MD 20910
    Page Author: NWS Internet Services Team
Disclaimer
Information Quality
Credits
Glossary
Privacy Policy
Freedom of Information Act (FOIA)
About Us
Career Opportunities